Terminal Aerodrome Forecast
Issued by NWS

Home | Current Version | Previous Version | Text Only | Print | Product List | Glossary On
Versions: 1 2 3 4 5 6 7 8 9 10 11 12 13 14 15 16 17 18 19 20 21
000
FTUS46 KSTO 241100
TAFSMF
TAF
KSMF 241120Z 2412/2512 VRB03KT 2SM BR FEW002 FEW250
      TEMPO 2412/2414 1SM BR BKN002
     FM241400 VRB03KT 1SM BR BKN002
      TEMPO 2414/2417 1/2SM FG VV001
     FM241800 34006KT P6SM FEW250
     FM250500 VRB03KT 4SM BR FEW250=

USA.gov is the U.S. government's official web portal to all federal, state and local government web resources and services.